Time;durP1;ratioP1;P1;durP2;ratioP2;P2;SDS_P1;SDS_P2;PMS_P1;PMS_P2;Temp;Humidity;BMP_temperature;BMP_pressure;BME280_temperature;BME280_humidity;BME280_pressure;Samples;Min_cycle;Max_cycle;Signal;HPM_P1;HPM_P2
2023/04/12 00:01:03;;;;;;;4.82;2.28;;;8.90;99.90;;;;;;6067981;23;95668;-76
2023/04/12 00:03:33;;;;;;;6.65;1.90;;;8.90;99.90;;;;;;6044922;23;101886;-76
2023/04/12 00:06:02;;;;;;;4.78;1.92;;;8.90;99.90;;;;;;6095799;23;92301;-75
2023/04/12 00:08:32;;;;;;;9.73;2.78;;;8.90;99.90;;;;;;6046102;23;92433;-75
2023/04/12 00:11:00;;;;;;;6.25;2.03;;;8.90;99.90;;;;;;6095720;23;93357;-75
2023/04/12 00:13:28;;;;;;;7.45;2.90;;;9.00;99.90;;;;;;6069247;23;94277;-75
2023/04/12 00:15:55;;;;;;;8.80;2.70;;;9.00;99.90;;;;;;6095852;23;92422;-75
2023/04/12 00:18:23;;;;;;;7.35;2.95;;;9.00;99.90;;;;;;6044705;23;108133;-75
2023/04/12 00:20:51;;;;;;;4.25;1.77;;;9.00;99.90;;;;;;6070210;23;93219;-75
2023/04/12 00:23:19;;;;;;;8.60;2.17;;;9.10;99.90;;;;;;6044754;23;99549;-75
2023/04/12 00:25:46;;;;;;;7.07;2.28;;;9.10;99.90;;;;;;6043746;23;94868;-75
2023/04/12 00:28:17;;;;;;;6.60;2.45;;;9.00;99.90;;;;;;6095475;23;92403;-75
2023/04/12 00:30:44;;;;;;;8.18;2.35;;;9.10;99.90;;;;;;6069297;23;95749;-75
2023/04/12 00:33:11;;;;;;;6.38;2.30;;;9.00;99.90;;;;;;6068769;23;96574;-75
2023/04/12 00:35:38;;;;;;;4.18;2.05;;;9.00;99.90;;;;;;6069419;23;92494;-75
2023/04/12 00:38:09;;;;;;;9.20;2.30;;;9.00;99.90;;;;;;6045502;23;92471;-75
2023/04/12 00:40:43;;;;;;;6.25;2.30;;;9.00;99.90;;;;;;6068879;23;93925;-75
2023/04/12 00:43:17;;;;;;;7.25;2.00;;;9.00;99.90;;;;;;6069614;23;95344;-75
2023/04/12 00:45:48;;;;;;;5.35;2.47;;;9.00;99.90;;;;;;6046832;23;92779;-75
2023/04/12 00:48:16;;;;;;;6.93;2.33;;;9.00;99.90;;;;;;6093760;23;92439;-75
2023/04/12 00:50:46;;;;;;;6.55;2.08;;;9.00;99.90;;;;;;6093586;23;101264;-75
2023/04/12 00:53:13;;;;;;;6.38;2.20;;;9.10;99.90;;;;;;6044982;23;98878;-75
2023/04/12 00:55:43;;;;;;;9.18;2.30;;;9.20;99.90;;;;;;6069233;23;92427;-75
2023/04/12 00:58:10;;;;;;;9.63;2.45;;;9.20;99.90;;;;;;6095157;23;92469;-75
2023/04/12 01:00:38;;;;;;;5.15;2.00;;;9.20;99.90;;;;;;6069345;23;93053;-75
2023/04/12 01:03:07;;;;;;;6.97;2.65;;;9.20;99.90;;;;;;6095284;23;92910;-75
2023/04/12 01:05:42;;;;;;;8.38;2.30;;;9.30;99.90;;;;;;6021199;23;92369;-75
2023/04/12 01:08:26;;;;;;;6.07;1.70;;;9.40;99.90;;;;;;6069716;23;91714;-75
2023/04/12 01:11:22;;;;;;;5.25;2.20;;;9.40;99.90;;;;;;6069200;23;95524;-75
2023/04/12 01:14:06;;;;;;;4.75;1.90;;;9.40;99.90;;;;;;6095491;23;93078;-75
2023/04/12 01:16:56;;;;;;;6.18;2.22;;;9.40;99.90;;;;;;6067730;23;94803;-75
2023/04/12 01:19:33;;;;;;;7.07;2.53;;;9.40;99.90;;;;;;6068586;23;92433;-75
2023/04/12 01:22:42;;;;;;;6.40;2.17;;;9.30;99.90;;;;;;6044467;23;95402;-75
2023/04/12 01:25:31;;;;;;;7.28;2.50;;;9.50;99.90;;;;;;6094772;23;93016;-75
2023/04/12 01:28:03;;;;;;;5.28;2.20;;;9.40;99.90;;;;;;6068797;23;92371;-75
2023/04/12 01:30:31;;;;;;;5.20;2.15;;;9.40;99.90;;;;;;6068730;23;92882;-75
2023/04/12 01:33:06;;;;;;;5.13;2.20;;;9.40;99.90;;;;;;6068599;23;96001;-75
2023/04/12 01:35:33;;;;;;;6.35;2.83;;;9.50;99.90;;;;;;6069101;23;95568;-75
2023/04/12 01:38:02;;;;;;;7.85;2.35;;;9.50;99.90;;;;;;6044700;23;94185;-75
2023/04/12 01:40:30;;;;;;;7.28;2.20;;;9.50;99.90;;;;;;6068530;23;92583;-75
2023/04/12 01:43:11;;;;;;;14.05;3.13;;;9.50;99.90;;;;;;6042888;23;97825;-75
2023/04/12 01:45:39;;;;;;;5.63;2.38;;;9.70;99.90;;;;;;6068577;23;95431;-75
2023/04/12 01:48:09;;;;;;;6.00;2.70;;;9.50;99.90;;;;;;6068724;23;92423;-75
2023/04/12 01:50:51;;;;;;;5.72;2.35;;;9.50;99.90;;;;;;6044876;23;93260;-75
2023/04/12 01:53:42;;;;;;;6.75;2.28;;;9.50;99.90;;;;;;6068806;23;94310;-75
2023/04/12 01:56:10;;;;;;;10.20;3.20;;;9.50;99.90;;;;;;6070082;23;95509;-75
2023/04/12 01:58:40;;;;;;;7.70;2.55;;;9.50;99.90;;;;;;6069794;23;92436;-75
2023/04/12 02:01:08;;;;;;;5.88;3.15;;;9.60;99.90;;;;;;6070223;23;91748;-75
2023/04/12 02:03:41;;;;;;;7.82;3.35;;;9.60;99.90;;;;;;6069462;23;95735;-76
2023/04/12 02:06:09;;;;;;;8.25;3.05;;;9.50;99.90;;;;;;6046001;23;95462;-75
2023/04/12 02:08:36;;;;;;;7.20;2.38;;;9.60;99.90;;;;;;6094732;23;94764;-75
2023/04/12 02:11:10;;;;;;;7.97;2.60;;;9.60;99.90;;;;;;6069971;23;92489;-75
2023/04/12 02:13:37;;;;;;;;;;;9.70;99.90;;;;;;6069987;23;95758;-75
2023/04/12 02:16:04;;;;;;;5.55;2.90;;;9.60;99.90;;;;;;6071483;23;95417;-76
2023/04/12 02:18:35;;;;;;;8.35;2.90;;;9.60;99.90;;;;;;6069802;23;92455;-76
2023/04/12 02:21:05;;;;;;;7.78;2.65;;;9.60;99.90;;;;;;6070222;23;92423;-75
2023/04/12 02:23:33;;;;;;;5.63;2.67;;;9.60;99.90;;;;;;6069467;23;95409;-75
2023/04/12 02:26:00;;;;;;;6.38;2.70;;;9.60;99.90;;;;;;6046014;23;92961;-75
2023/04/12 02:28:27;;;;;;;8.73;2.80;;;9.70;99.90;;;;;;6069755;23;92997;-75
2023/04/12 02:30:55;;;;;;;7.60;3.20;;;9.70;99.90;;;;;;6069989;23;92586;-75
2023/04/12 02:33:27;;;;;;;6.30;2.92;;;9.70;99.90;;;;;;6067909;23;97719;-75
2023/04/12 02:36:01;;;;;;;8.85;2.90;;;9.70;99.90;;;;;;6069926;23;97866;-75
2023/04/12 02:38:28;;;;;;;9.60;3.73;;;9.70;99.90;;;;;;6046963;23;92529;-75
2023/04/12 02:40:58;;;;;;;5.10;2.95;;;9.70;99.90;;;;;;6046307;23;92374;-75
2023/04/12 02:43:25;;;;;;;7.82;3.08;;;9.70;99.90;;;;;;6069215;23;94291;-75
2023/04/12 02:45:59;;;;;;;9.25;3.17;;;9.70;99.90;;;;;;6047112;23;95411;-75
2023/04/12 02:48:26;;;;;;;9.23;3.22;;;9.80;99.90;;;;;;6045565;23;92571;-75
2023/04/12 02:50:53;;;;;;;7.45;2.95;;;9.80;99.90;;;;;;6070154;23;91673;-75
2023/04/12 02:53:22;;;;;;;9.65;3.55;;;9.80;99.90;;;;;;6069534;23;95564;-75
2023/04/12 02:56:07;;;;;;;7.32;3.08;;;9.70;99.90;;;;;;6069469;23;93793;-75
2023/04/12 02:58:35;;;;;;;8.43;3.50;;;9.80;99.90;;;;;;6094524;23;94726;-75
2023/04/12 03:01:07;;;;;;;9.25;2.95;;;9.80;99.90;;;;;;6069817;23;93079;-75
2023/04/12 03:03:51;;;;;;;9.15;2.92;;;9.70;99.90;;;;;;6069373;23;94109;-75
2023/04/12 03:06:34;;;;;;;10.20;3.10;;;9.60;99.90;;;;;;6048725;23;95159;-75
2023/04/12 03:09:01;;;;;;;4.22;2.42;;;9.60;99.90;;;;;;6069939;23;92380;-75
2023/04/12 03:11:28;;;;;;;7.20;3.20;;;9.60;99.90;;;;;;6045491;23;92340;-75
2023/04/12 03:13:56;;;;;;;6.20;2.53;;;9.60;99.90;;;;;;6069616;23;94231;-76
2023/04/12 03:16:28;;;;;;;7.35;2.95;;;9.60;99.90;;;;;;6070087;23;94232;-75
2023/04/12 03:19:05;;;;;;;7.63;3.10;;;9.60;99.90;;;;;;6069853;23;92426;-75
2023/04/12 03:21:32;;;;;;;6.60;3.00;;;9.50;99.90;;;;;;6045371;23;92471;-75
2023/04/12 03:24:00;;;;;;;7.90;2.78;;;9.60;99.90;;;;;;6067678;23;97838;-75
2023/04/12 03:26:29;;;;;;;7.32;3.13;;;9.60;99.90;;;;;;6069278;23;97401;-75
2023/04/12 03:29:03;;;;;;;6.88;3.33;;;9.60;99.90;;;;;;6096190;23;92430;-75
2023/04/12 03:31:33;;;;;;;5.47;2.80;;;9.60;99.90;;;;;;6069238;23;92480;-75
2023/04/12 03:34:05;;;;;;;7.22;2.60;;;9.60;99.90;;;;;;6069367;23;95144;-75
2023/04/12 03:36:38;;;;;;;4.80;2.83;;;9.50;99.90;;;;;;6045906;23;93888;-75
2023/04/12 03:39:12;;;;;;;4.38;2.42;;;9.60;99.90;;;;;;6047122;23;92453;-75
2023/04/12 03:41:39;;;;;;;7.57;3.28;;;9.60;99.90;;;;;;6045750;23;91756;-75
2023/04/12 03:44:07;;;;;;;5.90;2.55;;;9.60;99.90;;;;;;6069404;23;95624;-75
2023/04/12 03:46:35;;;;;;;6.00;2.17;;;9.70;99.90;;;;;;6045183;23;95379;-75
2023/04/12 03:49:06;;;;;;;5.65;2.85;;;9.60;99.90;;;;;;6068412;23;94832;-75
2023/04/12 03:51:33;;;;;;;6.30;3.00;;;9.70;99.90;;;;;;6045599;23;92484;-75
2023/04/12 03:54:03;;;;;;;6.95;2.70;;;9.70;99.90;;;;;;6093777;23;95613;-75
2023/04/12 03:56:39;;;;;;;5.30;2.50;;;9.70;99.90;;;;;;6069091;23;95115;-75
2023/04/12 03:59:13;;;;;;;6.30;3.03;;;9.60;99.90;;;;;;6046477;23;92404;-76
2023/04/12 04:01:42;;;;;;;4.47;2.60;;;9.60;99.90;;;;;;6045339;23;92610;-75
2023/04/12 04:04:09;;;;;;;5.20;2.70;;;9.60;99.90;;;;;;6069277;23;95478;-75
2023/04/12 04:06:37;;;;;;;4.95;2.42;;;9.60;99.90;;;;;;6045240;23;94753;-75
2023/04/12 04:09:04;;;;;;;5.93;2.47;;;9.70;99.90;;;;;;6069499;23;92355;-75
2023/04/12 04:11:34;;;;;;;5.63;2.50;;;9.60;99.90;;;;;;6069591;23;92994;-75
2023/04/12 04:14:06;;;;;;;3.25;2.17;;;9.60;99.90;;;;;;6068143;23;98338;-75
2023/04/12 04:16:33;;;;;;;6.22;3.13;;;9.70;99.90;;;;;;6068581;23;97742;-75
2023/04/12 04:19:02;;;;;;;5.47;2.42;;;9.70;99.90;;;;;;6068957;23;92366;-75
2023/04/12 04:21:29;;;;;;;5.47;2.70;;;9.70;99.90;;;;;;6045407;23;92440;-75
2023/04/12 04:24:01;;;;;;;5.85;2.80;;;9.70;99.90;;;;;;6068711;23;95436;-75
2023/04/12 04:26:33;;;;;;;5.00;2.75;;;9.70;99.90;;;;;;6046394;23;95432;-75
2023/04/12 04:29:13;;;;;;;5.70;2.20;;;9.70;99.90;;;;;;6069292;23;92342;-75
2023/04/12 04:31:41;;;;;;;5.55;2.30;;;9.70;99.90;;;;;;6069775;23;92200;-75
2023/04/12 04:34:08;;;;;;;5.68;2.58;;;9.70;99.90;;;;;;6069176;23;96164;-76
2023/04/12 04:36:41;;;;;;;6.18;2.55;;;9.60;99.90;;;;;;6047535;23;95403;-75
2023/04/12 04:39:09;;;;;;;3.40;2.15;;;9.60;99.90;;;;;;6067828;23;94880;-75
2023/04/12 04:41:41;;;;;;;7.75;2.80;;;9.60;99.90;;;;;;6069247;23;92428;-75
2023/04/12 04:44:14;;;;;;;5.28;2.10;;;9.60;99.90;;;;;;6069502;23;95450;-75
2023/04/12 04:46:50;;;;;;;4.05;2.65;;;9.50;99.90;;;;;;6046432;23;94084;-75
2023/04/12 04:49:17;;;;;;;6.13;2.55;;;9.50;99.90;;;;;;6045298;23;92502;-75
2023/04/12 04:51:44;;;;;;;5.88;2.50;;;9.50;99.90;;;;;;6044977;23;92490;-75
2023/04/12 04:54:12;;;;;;;5.90;2.78;;;9.50;99.90;;;;;;6044971;23;95709;-76
2023/04/12 04:56:41;;;;;;;4.25;1.90;;;9.50;99.90;;;;;;6070532;23;93147;-75
2023/04/12 04:59:10;;;;;;;5.32;2.20;;;9.50;99.90;;;;;;6045334;23;92496;-75
2023/04/12 05:01:37;;;;;;;7.82;2.35;;;9.50;99.90;;;;;;6069256;23;92454;-75
2023/04/12 05:04:04;;;;;;;4.20;2.25;;;9.50;99.90;;;;;;6043268;23;97468;-75
2023/04/12 05:06:31;;;;;;;6.50;2.35;;;9.50;99.90;;;;;;6068830;23;97550;-75
2023/04/12 05:09:00;;;;;;;5.80;2.20;;;9.50;99.90;;;;;;6044952;23;93388;-75
2023/04/12 05:11:30;;;;;;;4.55;2.10;;;9.40;99.90;;;;;;6069006;23;92518;-75
2023/04/12 05:13:57;;;;;;;6.53;2.33;;;9.50;99.90;;;;;;6068394;23;95111;-75
2023/04/12 05:16:24;;;;;;;3.17;1.92;;;9.50;99.90;;;;;;6068999;23;95548;-75
2023/04/12 05:18:51;;;;;;;7.78;2.47;;;9.50;99.90;;;;;;6068899;23;92458;-75
2023/04/12 05:21:18;;;;;;;3.03;1.90;;;9.60;99.90;;;;;;6069435;23;91715;-75
2023/04/12 05:23:46;;;;;;;5.68;1.98;;;9.60;99.90;;;;;;6068699;23;95458;-75
2023/04/12 05:26:13;;;;;;;4.47;2.03;;;9.60;99.90;;;;;;6093560;23;95570;-75
2023/04/12 05:28:44;;;;;;;6.75;2.67;;;9.50;99.90;;;;;;6044615;23;94812;-75
2023/04/12 05:31:12;;;;;;;5.38;1.70;;;9.60;99.90;;;;;;6046386;23;92521;-75
2023/04/12 05:33:39;;;;;;;3.47;1.85;;;9.50;99.90;;;;;;6096445;23;92974;-75
2023/04/12 05:36:07;;;;;;;5.15;2.00;;;9.50;99.90;;;;;;6094118;23;94956;-75
2023/04/12 05:38:34;;;;;;;4.88;2.40;;;9.60;99.90;;;;;;6022271;23;92397;-75
2023/04/12 05:41:05;;;;;;;2.33;1.50;;;9.50;99.90;;;;;;6069668;23;92513;-75
2023/04/12 05:43:33;;;;;;;6.07;1.98;;;9.50;99.90;;;;;;6069904;23;94282;-75
2023/04/12 05:46:01;;;;;;;5.10;2.20;;;9.60;99.90;;;;;;6069970;23;95605;-75
2023/04/12 05:48:29;;;;;;;4.82;2.30;;;9.60;99.90;;;;;;6070046;23;92900;-75
2023/04/12 05:51:01;;;;;;;6.80;2.58;;;9.60;99.90;;;;;;6046278;23;92379;-75
2023/04/12 05:53:31;;;;;;;6.47;2.15;;;9.60;99.90;;;;;;6067947;23;98288;-75
2023/04/12 05:56:01;;;;;;;3.67;2.30;;;9.60;99.90;;;;;;6070024;23;97584;-75
2023/04/12 05:58:29;;;;;;;2.72;1.58;;;9.60;99.90;;;;;;6070067;23;92486;-75
2023/04/12 06:00:56;;;;;;;4.68;1.58;;;9.50;99.90;;;;;;6045555;23;92488;-75
2023/04/12 06:03:24;;;;;;;3.97;2.00;;;9.50;99.90;;;;;;6045733;23;94753;-75
2023/04/12 06:05:54;;;;;;;5.03;2.25;;;9.50;99.90;;;;;;6069448;23;94893;-75
2023/04/12 06:08:23;;;;;;;5.22;2.03;;;9.50;99.90;;;;;;6069972;23;92445;-75
2023/04/12 06:10:50;;;;;;;5.15;2.05;;;9.50;99.90;;;;;;6046347;23;91657;-75
2023/04/12 06:13:17;;;;;;;3.97;2.22;;;9.50;99.90;;;;;;6045314;23;95182;-75
2023/04/12 06:15:44;;;;;;;4.88;2.05;;;9.50;99.90;;;;;;6069883;23;95249;-75
2023/04/12 06:18:12;;;;;;;4.68;2.45;;;9.40;99.90;;;;;;6068402;23;94795;-75
2023/04/12 06:20:39;;;;;;;6.50;2.53;;;9.50;99.90;;;;;;6070018;23;92580;-76
2023/04/12 06:23:06;;;;;;;4.90;1.92;;;9.50;99.90;;;;;;6045796;23;92998;-75
2023/04/12 06:25:34;;;;;;;4.72;2.17;;;9.50;99.90;;;;;;6045323;23;95582;-75
2023/04/12 06:28:02;;;;;;;3.13;2.33;;;9.60;99.90;;;;;;6069591;23;92387;-75
2023/04/12 06:30:31;;;;;;;6.65;2.10;;;9.50;99.90;;;;;;6069720;23;92457;-75
2023/04/12 06:32:58;;;;;;;6.68;2.13;;;9.50;99.90;;;;;;6069461;23;96005;-75
2023/04/12 06:35:25;;;;;;;4.20;2.40;;;9.40;99.90;;;;;;6046020;23;95236;-75
2023/04/12 06:37:52;;;;;;;4.65;2.30;;;9.50;99.90;;;;;;6069986;23;92458;-75
2023/04/12 06:40:19;;;;;;;4.28;2.08;;;9.50;99.90;;;;;;6069721;23;92523;-75
2023/04/12 06:42:46;;;;;;;3.90;2.35;;;9.50;99.90;;;;;;6068817;23;95294;-75
2023/04/12 06:45:20;;;;;;;4.13;2.00;;;9.50;99.90;;;;;;6069252;23;96362;-75
2023/04/12 06:47:46;;;;;;;4.35;2.10;;;9.50;99.90;;;;;;6070445;23;92493;-75
2023/04/12 06:50:14;;;;;;;5.28;2.30;;;9.50;99.90;;;;;;6095873;23;92484;-75
2023/04/12 06:52:41;;;;;;;5.93;2.42;;;9.50;99.90;;;;;;6070022;23;93042;-75
2023/04/12 06:55:08;;;;;;;4.88;2.40;;;9.50;99.90;;;;;;6045421;23;95712;-75
2023/04/12 06:57:35;;;;;;;4.88;2.40;;;9.50;99.90;;;;;;6069963;23;98325;-75
2023/04/12 07:00:03;;;;;;;3.97;2.20;;;9.50;99.90;;;;;;6070406;23;91738;-75
2023/04/12 07:02:30;;;;;;;5.03;2.47;;;9.60;99.90;;;;;;6095932;23;93182;-75
2023/04/12 07:04:57;;;;;;;7.03;2.35;;;9.50;99.90;;;;;;6095926;23;92738;-75
2023/04/12 07:07:24;;;;;;;4.25;2.55;;;9.60;99.90;;;;;;6043911;23;94898;-75
2023/04/12 07:09:51;;;;;;;6.47;2.40;;;9.70;99.90;;;;;;6095953;23;92375;-75
2023/04/12 07:12:18;;;;;;;2.00;1.90;;;9.70;99.90;;;;;;6069815;23;93168;-75
2023/04/12 07:14:45;;;;;;;5.80;2.40;;;9.70;99.90;;;;;;6070144;23;92958;-75
2023/04/12 07:17:12;;;;;;;5.88;2.50;;;9.80;99.90;;;;;;6095991;23;92361;-75
2023/04/12 07:19:40;;;;;;;5.15;2.20;;;9.80;99.90;;;;;;6095533;23;100110;-75
2023/04/12 07:22:07;;;;;;;3.05;2.33;;;9.80;99.90;;;;;;6095717;23;93272;-75
2023/04/12 07:24:34;;;;;;;6.38;2.38;;;9.80;99.90;;;;;;6095950;23;92996;-75
2023/04/12 07:27:02;;;;;;;5.45;2.30;;;9.80;99.90;;;;;;6046044;23;92441;-75
2023/04/12 07:29:30;;;;;;;6.55;2.20;;;9.80;99.90;;;;;;6095817;23;92367;-75
2023/04/12 07:31:59;;;;;;;3.97;2.33;;;9.80;99.90;;;;;;6068433;23;95765;-75
2023/04/12 07:34:26;;;;;;;4.60;2.60;;;9.90;99.90;;;;;;6095379;23;96431;-75
2023/04/12 07:36:53;;;;;;;5.10;2.60;;;9.80;99.90;;;;;;6070359;23;92351;-76
2023/04/12 07:39:19;;;;;;;3.70;2.22;;;9.80;99.90;;;;;;6069818;23;92407;-76
2023/04/12 07:41:48;;;;;;;3.03;2.35;;;9.80;99.90;;;;;;6095806;23;92418;-76
2023/04/12 07:44:15;;;;;;;2.85;2.28;;;9.90;99.90;;;;;;6095484;23;92990;-76
2023/04/12 07:46:42;;;;;;;4.45;2.42;;;9.90;99.90;;;;;;6070228;23;92480;-76
2023/04/12 07:49:09;;;;;;;4.97;2.72;;;9.90;99.90;;;;;;6096093;23;91652;-76
2023/04/12 07:51:36;;;;;;;5.93;2.90;;;10.00;99.90;;;;;;6044374;23;102200;-76
2023/04/12 07:54:03;;;;;;;5.03;2.63;;;10.00;99.90;;;;;;6069402;23;94033;-76
2023/04/12 07:56:33;;;;;;;5.30;2.70;;;10.00;99.90;;;;;;6094239;23;94812;-76
2023/04/12 07:59:00;;;;;;;3.45;2.42;;;9.90;99.90;;;;;;6095804;23;92397;-76
2023/04/12 08:01:27;;;;;;;4.47;2.30;;;9.80;99.90;;;;;;6095400;23;93132;-76
2023/04/12 08:03:54;;;;;;;4.40;2.85;;;9.80;99.90;;;;;;6095656;23;92956;-76
2023/04/12 08:06:22;;;;;;;3.08;2.60;;;9.80;99.90;;;;;;6095717;23;92462;-76
2023/04/12 08:08:49;;;;;;;2.83;2.42;;;9.80;99.90;;;;;;6094152;23;92583;-76
2023/04/12 08:11:15;;;;;;;3.20;2.88;;;9.80;99.90;;;;;;6069462;23;94174;-76
2023/04/12 08:13:42;;;;;;;6.57;2.83;;;9.70;99.90;;;;;;6096066;23;91890;-76
2023/04/12 08:16:11;;;;;;;5.88;2.78;;;9.70;99.90;;;;;;6069791;23;92497;-76
2023/04/12 08:18:38;;;;;;;3.78;2.75;;;9.80;99.90;;;;;;6069329;23;92465;-76
2023/04/12 08:21:05;;;;;;;4.18;2.63;;;9.80;99.90;;;;;;6043966;23;95699;-76
2023/04/12 08:23:32;;;;;;;4.07;2.53;;;9.90;99.90;;;;;;6094865;23;104042;-76
2023/04/12 08:26:02;;;;;;;3.17;2.42;;;9.90;99.90;;;;;;6095499;23;92454;-76
2023/04/12 08:28:30;;;;;;;3.92;2.67;;;9.90;99.90;;;;;;6068976;23;92418;-76
2023/04/12 08:30:57;;;;;;;2.95;2.38;;;9.90;99.90;;;;;;6095528;23;93063;-76
2023/04/12 08:33:25;;;;;;;3.53;3.10;;;9.90;99.90;;;;;;6095402;23;92881;-76
2023/04/12 08:35:53;;;;;;;3.83;2.35;;;10.00;99.90;;;;;;6095854;23;92408;-76
2023/04/12 08:38:20;;;;;;;4.82;2.65;;;10.10;99.90;;;;;;6095881;23;91635;-76
2023/04/12 08:40:57;;;;;;;3.92;2.63;;;10.10;99.90;;;;;;6095405;23;93183;-76
2023/04/12 08:43:27;;;;;;;3.08;2.70;;;10.30;99.90;;;;;;6095113;23;92899;-76
2023/04/12 08:45:57;;;;;;;2.97;2.67;;;10.30;99.90;;;;;;6068202;23;94869;-76
2023/04/12 08:48:26;;;;;;;3.33;2.60;;;10.40;99.90;;;;;;6095446;23;92909;-76
2023/04/12 08:50:56;;;;;;;4.97;3.05;;;10.30;99.90;;;;;;6095388;23;93838;-76
2023/04/12 08:53:23;;;;;;;2.17;2.08;;;10.50;99.90;;;;;;6095172;23;92874;-76
2023/04/12 08:55:51;;;;;;;2.58;2.38;;;10.60;99.90;;;;;;6045044;23;92502;-76
2023/04/12 08:58:19;;;;;;;3.40;2.75;;;10.80;99.90;;;;;;6095571;23;92382;-76
2023/04/12 09:00:46;;;;;;;2.67;2.33;;;11.00;99.90;;;;;;6095158;23;93232;-76
2023/04/12 09:03:13;;;;;;;3.13;2.70;;;11.20;99.90;;;;;;6069385;23;95500;-76
2023/04/12 09:05:41;;;;;;;2.47;2.28;;;11.40;99.90;;;;;;6068970;23;92541;-76
2023/04/12 09:08:08;;;;;;;4.03;2.70;;;11.50;99.90;;;;;;6045046;23;92450;-76
2023/04/12 09:10:36;;;;;;;2.90;2.47;;;11.70;99.90;;;;;;6093454;23;95508;-76
2023/04/12 09:13:04;;;;;;;2.30;2.10;;;12.00;99.90;;;;;;6068651;23;98814;-76
2023/04/12 09:15:33;;;;;;;2.30;2.10;;;12.20;99.90;;;;;;6069402;23;92445;-76
2023/04/12 09:18:10;;;;;;;2.10;2.00;;;12.10;99.90;;;;;;6095391;23;92393;-76
2023/04/12 09:20:37;;;;;;;2.00;1.83;;;12.10;99.90;;;;;;6094836;23;93059;-76
2023/04/12 09:23:20;;;;;;;2.38;2.05;;;12.00;99.90;;;;;;6069527;23;93626;-76
2023/04/12 09:25:50;;;;;;;1.92;1.83;;;12.00;99.90;;;;;;6069060;23;92383;-76
2023/04/12 09:28:24;;;;;;;1.92;1.83;;;11.80;99.90;;;;;;6070536;23;91996;-76
2023/04/12 09:30:53;;;;;;;3.13;2.00;;;11.80;99.90;;;;;;6095139;23;93249;-76
2023/04/12 09:33:22;;;;;;;2.53;2.00;;;11.70;99.90;;;;;;6094954;23;93112;-76
2023/04/12 09:35:49;;;;;;;1.88;1.77;;;11.70;99.90;;;;;;6043313;23;95333;-77
2023/04/12 09:38:17;;;;;;;2.35;2.15;;;11.60;99.90;;;;;;6095202;23;92480;-76
2023/04/12 09:40:44;;;;;;;3.35;2.05;;;11.60;99.90;;;;;;6094619;23;93264;-76
2023/04/12 09:43:11;;;;;;;2.40;2.15;;;11.50;99.90;;;;;;6069077;23;93986;-76
2023/04/12 09:45:38;;;;;;;2.20;2.10;;;11.60;99.90;;;;;;6094936;23;92390;-76
2023/04/12 09:48:06;;;;;;;2.50;2.40;;;11.60;99.90;;;;;;6095099;23;93236;-76
2023/04/12 09:50:34;;;;;;;2.78;2.58;;;11.60;99.90;;;;;;6094764;23;93133;-76
2023/04/12 09:53:02;;;;;;;3.75;3.22;;;11.50;99.90;;;;;;6069604;23;92928;-76
2023/04/12 09:55:31;;;;;;;3.13;2.92;;;11.60;99.90;;;;;;6069091;23;92951;-76
2023/04/12 09:58:02;;;;;;;3.45;3.22;;;11.50;99.90;;;;;;6095065;23;92405;-76
2023/04/12 10:00:33;;;;;;;3.53;3.33;;;11.60;99.90;;;;;;6066652;23;95820;-76
2023/04/12 10:03:00;;;;;;;4.07;3.40;;;11.50;99.90;;;;;;6068849;23;94230;-76
2023/04/12 10:05:27;;;;;;;4.20;3.90;;;11.50;99.90;;;;;;6095030;23;92363;-76
2023/04/12 10:07:58;;;;;;;4.50;4.20;;;11.60;99.90;;;;;;6068682;23;92451;-76
2023/04/12 10:10:29;;;;;;;4.32;4.03;;;11.80;99.90;;;;;;6068520;23;95281;-76
2023/04/12 10:12:56;;;;;;;3.58;3.38;;;12.10;99.90;;;;;;6068239;23;94152;-76
2023/04/12 10:15:24;;;;;;;4.25;3.83;;;12.40;99.90;;;;;;6069562;23;92979;-76
2023/04/12 10:17:57;;;;;;;4.30;4.00;;;12.70;99.90;;;;;;6096963;23;92203;-76
2023/04/12 10:20:24;;;;;;;3.95;3.65;;;13.00;99.90;;;;;;6096013;23;93074;-76
2023/04/12 10:22:56;;;;;;;3.10;2.90;;;13.20;99.90;;;;;;6069893;23;95326;-76
2023/04/12 10:25:26;;;;;;;3.33;3.03;;;13.30;99.90;;;;;;6068167;23;95242;-76
2023/04/12 10:27:53;;;;;;;3.20;3.00;;;13.50;99.90;;;;;;6095970;23;92403;-76
2023/04/12 10:30:27;;;;;;;3.10;2.92;;;13.80;99.90;;;;;;6070209;23;93359;-76
2023/04/12 10:33:03;;;;;;;;;;;13.90;99.90;;;;;;6096480;23;92848;-76
2023/04/12 10:35:48;;;;;;;3.40;3.10;;;13.80;99.90;;;;;;6097825;23;92690;-76
2023/04/12 10:38:15;;;;;;;3.65;3.35;;;13.90;99.90;;;;;;6096313;23;92441;-76
2023/04/12 10:41:07;;;;;;;3.80;3.50;;;14.10;99.90;;;;;;6069413;23;105734;-76
2023/04/12 10:43:34;;;;;;;3.60;3.30;;;14.50;99.90;;;;;;6070447;23;92644;-76
2023/04/12 10:46:04;;;;;;;3.58;3.10;;;14.60;99.90;;;;;;6045897;23;95740;-76
2023/04/12 10:48:51;;;;;;;3.10;2.78;;;14.80;99.90;;;;;;6046053;23;92488;-76
2023/04/12 10:51:29;;;;;;;3.72;3.13;;;15.00;99.90;;;;;;6068085;23;100359;-76
2023/04/12 10:54:06;;;;;;;3.30;2.83;;;15.10;99.90;;;;;;6069424;23;96408;-76
2023/04/12 10:56:37;;;;;;;2.92;2.72;;;15.40;99.90;;;;;;6070335;23;92992;-76
2023/04/12 10:59:06;;;;;;;3.78;2.80;;;15.50;99.90;;;;;;6070224;23;92760;-76
2023/04/12 11:01:40;;;;;;;3.42;3.20;;;15.70;99.90;;;;;;6046390;23;95466;-76
2023/04/12 11:04:18;;;;;;;4.93;2.97;;;15.90;99.90;;;;;;6095741;23;92442;-76
2023/04/12 11:07:09;;;;;;;3.47;3.17;;;16.20;99.90;;;;;;6047743;23;92952;-76
2023/04/12 11:09:47;;;;;;;3.85;2.90;;;16.30;99.90;;;;;;6073059;23;91702;-76
2023/04/12 11:12:26;;;;;;;3.65;2.85;;;16.40;99.90;;;;;;6069896;23;95643;-76
2023/04/12 11:15:00;;;;;;;5.15;3.15;;;16.50;99.90;;;;;;6069821;23;92781;-76
2023/04/12 11:17:55;;;;;;;3.45;3.15;;;16.70;99.90;;;;;;6068320;23;94825;-76
2023/04/12 11:20:25;;;;;;;3.90;3.22;;;16.70;99.90;;;;;;6069892;23;92409;-76
2023/04/12 11:22:53;;;;;;;4.72;3.33;;;16.70;99.90;;;;;;6095784;23;93501;-76
2023/04/12 11:25:23;;;;;;;4.25;3.58;;;16.80;99.90;;;;;;6064371;23;96294;-76
2023/04/12 11:27:53;;;;;;;6.55;3.33;;;17.00;99.90;;;;;;6064791;23;92431;-76
2023/04/12 11:30:24;;;;;;;7.33;3.07;;;17.20;99.90;;;;;;6064801;23;93183;-77
2023/04/12 11:32:51;;;;;;;4.70;2.90;;;17.30;99.90;;;;;;6089057;23;93252;-76
2023/04/12 11:35:26;;;;;;;4.97;3.30;;;17.20;99.90;;;;;;6065016;23;101641;-76
2023/04/12 11:37:57;;;;;;;5.68;3.00;;;17.40;99.90;;;;;;6087789;23;92552;-76
2023/04/12 11:40:25;;;;;;;6.47;3.40;;;17.50;99.90;;;;;;6040530;23;92465;-77
2023/04/12 11:42:52;;;;;;;4.30;3.10;;;17.40;99.90;;;;;;6062777;23;98023;-76
2023/04/12 11:45:20;;;;;;;7.05;3.10;;;17.20;99.90;;;;;;6089315;23;95508;-76
2023/04/12 11:47:47;;;;;;;6.53;3.20;;;17.10;99.90;;;;;;6089154;23;92397;-82
2023/04/12 11:50:28;;;;;;;5.72;2.30;;;17.20;99.90;;;;;;6040500;23;92486;-79
2023/04/12 11:53:07;;;;;;;4.90;3.00;;;17.40;99.90;;;;;;6064582;23;93238;-77
2023/04/12 11:55:34;;;;;;;6.78;2.60;;;17.30;99.90;;;;;;6040548;23;95449;-78
2023/04/12 11:58:01;;;;;;;5.25;2.42;;;17.30;99.90;;;;;;6040340;23;92500;-78
2023/04/12 12:00:30;;;;;;;5.32;2.50;;;17.50;99.90;;;;;;6065402;23;92027;-77
2023/04/12 12:02:56;;;;;;;7.30;2.67;;;17.60;99.90;;;;;;6065608;23;94031;-78
2023/04/12 12:05:36;;;;;;;4.47;2.75;;;17.70;99.90;;;;;;6064443;23;95408;-77
2023/04/12 12:08:06;;;;;;;8.15;3.03;;;17.80;99.90;;;;;;6062857;23;94840;-77
2023/04/12 12:10:35;;;;;;;6.88;3.13;;;17.80;99.90;;;;;;6064825;23;92419;-77
2023/04/12 12:13:17;;;;;;;5.30;2.72;;;17.70;99.90;;;;;;6064591;23;95831;-77
2023/04/12 12:15:45;;;;;;;5.53;2.47;;;17.60;99.90;;;;;;6088982;23;92603;-77
2023/04/12 12:18:12;;;;;;;6.88;2.90;;;17.50;99.90;;;;;;6066479;23;92379;-77
2023/04/12 12:20:48;;;;;;;6.32;2.58;;;17.60;99.90;;;;;;6065772;23;100436;-77
2023/04/12 12:23:29;;;;;;;5.97;2.42;;;17.80;99.90;;;;;;6065772;23;93881;-77
2023/04/12 12:25:57;;;;;;;7.68;2.63;;;18.00;98.70;;;;;;6090208;23;92026;-77
2023/04/12 12:28:40;;;;;;;4.75;2.45;;;18.10;99.10;;;;;;6069550;23;92402;-77
2023/04/12 12:31:14;;;;;;;5.63;2.38;;;18.20;99.00;;;;;;6069535;23;92500;-77
2023/04/12 12:33:41;;;;;;;6.70;2.65;;;18.40;98.70;;;;;;6069150;23;95498;-77
2023/04/12 12:36:16;;;;;;;6.10;2.28;;;18.40;98.60;;;;;;6068958;23;97866;-78
2023/04/12 12:38:43;;;;;;;7.63;2.80;;;18.40;98.40;;;;;;6069133;23;92436;-77
2023/04/12 12:41:23;;;;;;;6.97;2.05;;;18.50;98.20;;;;;;6068994;23;92528;-77
2023/04/12 12:43:51;;;;;;;5.78;2.05;;;18.60;98.10;;;;;;6069347;23;93177;-77
2023/04/12 12:46:19;;;;;;;5.88;2.40;;;18.70;98.10;;;;;;6095352;23;92980;-77
2023/04/12 12:48:47;;;;;;;6.43;2.72;;;18.80;97.90;;;;;;6095649;23;92316;-77
2023/04/12 12:51:19;;;;;;;5.97;1.90;;;18.80;97.20;;;;;;6095842;23;92016;-77
2023/04/12 12:53:46;;;;;;;7.15;2.40;;;18.90;97.00;;;;;;6070346;23;93085;-77
2023/04/12 12:56:14;;;;;;;6.82;2.10;;;19.00;96.80;;;;;;6094993;23;92351;-77
2023/04/12 12:58:41;;;;;;;9.80;2.80;;;19.10;96.70;;;;;;6094356;23;95368;-78
2023/04/12 13:01:08;;;;;;;8.20;2.30;;;19.10;96.40;;;;;;6069204;23;92478;-78
2023/04/12 13:03:35;;;;;;;6.57;2.20;;;19.10;96.30;;;;;;6068842;23;96327;-77
2023/04/12 13:06:03;;;;;;;7.07;2.13;;;19.10;96.20;;;;;;6068674;23;95769;-77
2023/04/12 13:08:34;;;;;;;6.43;2.35;;;19.20;96.40;;;;;;6095591;23;92327;-77